sensor_id;sensor_type;location;lat;lon;timestamp;P1;durP1;ratioP1;P2;durP2;ratioP2
6537;SDS011;3302;52.508;13.454;2024-01-30T00:01:58;11.30;;;5.33;;
6537;SDS011;3302;52.508;13.454;2024-01-30T00:04:24;9.63;;;5.70;;
6537;SDS011;3302;52.508;13.454;2024-01-30T00:06:50;8.00;;;5.40;;
6537;SDS011;3302;52.508;13.454;2024-01-30T00:09:18;8.60;;;5.43;;
6537;SDS011;3302;52.508;13.454;2024-01-30T00:11:44;8.03;;;5.20;;
6537;SDS011;3302;52.508;13.454;2024-01-30T00:14:10;9.37;;;5.50;;
6537;SDS011;3302;52.508;13.454;2024-01-30T00:16:36;12.07;;;6.00;;
6537;SDS011;3302;52.508;13.454;2024-01-30T00:19:02;9.70;;;5.40;;
6537;SDS011;3302;52.508;13.454;2024-01-30T00:21:28;9.67;;;5.63;;
6537;SDS011;3302;52.508;13.454;2024-01-30T00:23:54;9.50;;;5.60;;
6537;SDS011;3302;52.508;13.454;2024-01-30T00:26:20;7.63;;;5.50;;
6537;SDS011;3302;52.508;13.454;2024-01-30T00:28:46;13.57;;;5.80;;
6537;SDS011;3302;52.508;13.454;2024-01-30T00:31:12;9.73;;;5.70;;
6537;SDS011;3302;52.508;13.454;2024-01-30T00:33:40;8.37;;;5.53;;
6537;SDS011;3302;52.508;13.454;2024-01-30T00:36:07;10.70;;;5.97;;
6537;SDS011;3302;52.508;13.454;2024-01-30T00:38:34;7.73;;;5.63;;
6537;SDS011;3302;52.508;13.454;2024-01-30T00:41:00;7.87;;;5.33;;
6537;SDS011;3302;52.508;13.454;2024-01-30T00:43:29;9.27;;;5.73;;
6537;SDS011;3302;52.508;13.454;2024-01-30T00:45:56;8.37;;;5.77;;
6537;SDS011;3302;52.508;13.454;2024-01-30T00:48:23;8.90;;;5.77;;
6537;SDS011;3302;52.508;13.454;2024-01-30T00:50:49;10.93;;;5.63;;
6537;SDS011;3302;52.508;13.454;2024-01-30T00:53:14;10.37;;;5.97;;
6537;SDS011;3302;52.508;13.454;2024-01-30T00:55:40;8.20;;;5.30;;
6537;SDS011;3302;52.508;13.454;2024-01-30T00:58:06;9.23;;;5.23;;
6537;SDS011;3302;52.508;13.454;2024-01-30T01:00:32;10.70;;;6.37;;
6537;SDS011;3302;52.508;13.454;2024-01-30T01:02:58;11.23;;;5.80;;
6537;SDS011;3302;52.508;13.454;2024-01-30T01:05:24;8.07;;;5.17;;
6537;SDS011;3302;52.508;13.454;2024-01-30T01:07:50;7.50;;;5.23;;
6537;SDS011;3302;52.508;13.454;2024-01-30T01:10:17;7.13;;;5.10;;
6537;SDS011;3302;52.508;13.454;2024-01-30T01:12:43;10.30;;;5.67;;
6537;SDS011;3302;52.508;13.454;2024-01-30T01:15:10;10.40;;;5.90;;
6537;SDS011;3302;52.508;13.454;2024-01-30T01:17:36;9.97;;;5.60;;
6537;SDS011;3302;52.508;13.454;2024-01-30T01:20:03;9.50;;;5.33;;
6537;SDS011;3302;52.508;13.454;2024-01-30T01:22:30;7.10;;;5.30;;
6537;SDS011;3302;52.508;13.454;2024-01-30T01:24:56;7.33;;;4.73;;
6537;SDS011;3302;52.508;13.454;2024-01-30T01:27:22;8.33;;;5.17;;
6537;SDS011;3302;52.508;13.454;2024-01-30T01:29:48;10.40;;;5.50;;
6537;SDS011;3302;52.508;13.454;2024-01-30T01:32:13;8.00;;;5.00;;
6537;SDS011;3302;52.508;13.454;2024-01-30T01:34:39;9.17;;;5.70;;
6537;SDS011;3302;52.508;13.454;2024-01-30T01:37:05;8.40;;;5.10;;
6537;SDS011;3302;52.508;13.454;2024-01-30T01:39:32;8.50;;;5.30;;
6537;SDS011;3302;52.508;13.454;2024-01-30T01:41:58;9.20;;;4.87;;
6537;SDS011;3302;52.508;13.454;2024-01-30T01:44:24;9.27;;;5.20;;
6537;SDS011;3302;52.508;13.454;2024-01-30T01:46:49;8.93;;;5.23;;
6537;SDS011;3302;52.508;13.454;2024-01-30T01:49:17;9.50;;;6.07;;
6537;SDS011;3302;52.508;13.454;2024-01-30T01:51:45;9.70;;;5.77;;
6537;SDS011;3302;52.508;13.454;2024-01-30T01:54:13;10.43;;;5.67;;
6537;SDS011;3302;52.508;13.454;2024-01-30T01:56:41;9.00;;;5.80;;
6537;SDS011;3302;52.508;13.454;2024-01-30T01:59:08;8.53;;;5.27;;
6537;SDS011;3302;52.508;13.454;2024-01-30T02:01:37;8.83;;;6.00;;
6537;SDS011;3302;52.508;13.454;2024-01-30T02:04:06;10.33;;;5.60;;
6537;SDS011;3302;52.508;13.454;2024-01-30T02:06:33;10.13;;;5.97;;
6537;SDS011;3302;52.508;13.454;2024-01-30T02:08:59;11.30;;;6.00;;
6537;SDS011;3302;52.508;13.454;2024-01-30T02:11:25;9.70;;;5.63;;
6537;SDS011;3302;52.508;13.454;2024-01-30T02:13:52;7.93;;;5.57;;
6537;SDS011;3302;52.508;13.454;2024-01-30T02:16:18;9.57;;;5.33;;
6537;SDS011;3302;52.508;13.454;2024-01-30T02:18:43;8.93;;;5.70;;
6537;SDS011;3302;52.508;13.454;2024-01-30T02:21:13;6.87;;;5.10;;
6537;SDS011;3302;52.508;13.454;2024-01-30T02:23:42;7.67;;;5.00;;
6537;SDS011;3302;52.508;13.454;2024-01-30T02:26:11;9.70;;;5.33;;
6537;SDS011;3302;52.508;13.454;2024-01-30T02:28:37;10.67;;;5.73;;
6537;SDS011;3302;52.508;13.454;2024-01-30T02:31:04;9.07;;;5.60;;
6537;SDS011;3302;52.508;13.454;2024-01-30T02:33:30;8.90;;;5.80;;
6537;SDS011;3302;52.508;13.454;2024-01-30T02:35:55;11.07;;;5.80;;
6537;SDS011;3302;52.508;13.454;2024-01-30T02:38:22;9.07;;;5.40;;
6537;SDS011;3302;52.508;13.454;2024-01-30T02:40:48;9.47;;;5.53;;
6537;SDS011;3302;52.508;13.454;2024-01-30T02:43:15;7.30;;;5.00;;
6537;SDS011;3302;52.508;13.454;2024-01-30T02:45:42;7.40;;;5.63;;
6537;SDS011;3302;52.508;13.454;2024-01-30T02:48:07;9.03;;;5.47;;
6537;SDS011;3302;52.508;13.454;2024-01-30T02:50:33;9.53;;;5.40;;
6537;SDS011;3302;52.508;13.454;2024-01-30T02:52:59;8.83;;;5.70;;
6537;SDS011;3302;52.508;13.454;2024-01-30T02:55:25;7.77;;;5.13;;
6537;SDS011;3302;52.508;13.454;2024-01-30T02:57:51;9.60;;;5.70;;
6537;SDS011;3302;52.508;13.454;2024-01-30T03:00:18;7.37;;;5.20;;
6537;SDS011;3302;52.508;13.454;2024-01-30T03:02:44;10.30;;;5.50;;
6537;SDS011;3302;52.508;13.454;2024-01-30T03:05:10;9.13;;;5.83;;
6537;SDS011;3302;52.508;13.454;2024-01-30T03:07:36;9.03;;;5.90;;
6537;SDS011;3302;52.508;13.454;2024-01-30T03:10:03;10.20;;;5.87;;
6537;SDS011;3302;52.508;13.454;2024-01-30T03:12:31;10.07;;;5.97;;
6537;SDS011;3302;52.508;13.454;2024-01-30T03:14:57;9.83;;;6.20;;
6537;SDS011;3302;52.508;13.454;2024-01-30T03:17:23;10.50;;;5.93;;
6537;SDS011;3302;52.508;13.454;2024-01-30T03:19:49;9.97;;;6.10;;
6537;SDS011;3302;52.508;13.454;2024-01-30T03:22:15;9.70;;;5.80;;
6537;SDS011;3302;52.508;13.454;2024-01-30T03:24:42;7.67;;;5.57;;
6537;SDS011;3302;52.508;13.454;2024-01-30T03:27:08;10.10;;;6.10;;
6537;SDS011;3302;52.508;13.454;2024-01-30T03:29:34;9.43;;;5.77;;
6537;SDS011;3302;52.508;13.454;2024-01-30T03:32:00;8.30;;;5.60;;
6537;SDS011;3302;52.508;13.454;2024-01-30T03:34:26;11.17;;;5.87;;
6537;SDS011;3302;52.508;13.454;2024-01-30T03:36:52;10.07;;;5.67;;
6537;SDS011;3302;52.508;13.454;2024-01-30T03:39:17;9.33;;;5.43;;
6537;SDS011;3302;52.508;13.454;2024-01-30T03:41:43;8.77;;;5.33;;
6537;SDS011;3302;52.508;13.454;2024-01-30T03:44:09;8.73;;;5.63;;
6537;SDS011;3302;52.508;13.454;2024-01-30T03:46:35;8.87;;;5.60;;
6537;SDS011;3302;52.508;13.454;2024-01-30T03:49:01;9.57;;;5.80;;
6537;SDS011;3302;52.508;13.454;2024-01-30T03:51:27;10.93;;;6.20;;
6537;SDS011;3302;52.508;13.454;2024-01-30T03:53:53;11.17;;;6.17;;
6537;SDS011;3302;52.508;13.454;2024-01-30T03:56:19;9.90;;;5.67;;
6537;SDS011;3302;52.508;13.454;2024-01-30T03:58:45;9.10;;;6.07;;
6537;SDS011;3302;52.508;13.454;2024-01-30T04:01:14;9.40;;;5.43;;
6537;SDS011;3302;52.508;13.454;2024-01-30T04:03:40;8.80;;;5.40;;
6537;SDS011;3302;52.508;13.454;2024-01-30T04:06:06;9.80;;;6.23;;
6537;SDS011;3302;52.508;13.454;2024-01-30T04:08:33;9.03;;;5.67;;
6537;SDS011;3302;52.508;13.454;2024-01-30T04:10:59;9.73;;;6.03;;
6537;SDS011;3302;52.508;13.454;2024-01-30T04:13:28;8.70;;;5.73;;
6537;SDS011;3302;52.508;13.454;2024-01-30T04:15:53;10.37;;;5.83;;
6537;SDS011;3302;52.508;13.454;2024-01-30T04:18:20;9.87;;;5.70;;
6537;SDS011;3302;52.508;13.454;2024-01-30T04:20:46;10.23;;;6.00;;
6537;SDS011;3302;52.508;13.454;2024-01-30T04:23:12;9.07;;;6.10;;
6537;SDS011;3302;52.508;13.454;2024-01-30T04:25:37;8.13;;;5.90;;
6537;SDS011;3302;52.508;13.454;2024-01-30T04:28:03;10.83;;;5.77;;
6537;SDS011;3302;52.508;13.454;2024-01-30T04:30:29;7.87;;;5.60;;
6537;SDS011;3302;52.508;13.454;2024-01-30T04:32:55;9.17;;;5.97;;
6537;SDS011;3302;52.508;13.454;2024-01-30T04:35:21;7.37;;;5.13;;
6537;SDS011;3302;52.508;13.454;2024-01-30T04:37:51;9.60;;;5.40;;
6537;SDS011;3302;52.508;13.454;2024-01-30T04:40:17;9.93;;;5.97;;
6537;SDS011;3302;52.508;13.454;2024-01-30T04:42:43;9.87;;;5.50;;
6537;SDS011;3302;52.508;13.454;2024-01-30T04:45:09;9.10;;;6.07;;
6537;SDS011;3302;52.508;13.454;2024-01-30T04:47:35;10.90;;;5.70;;
6537;SDS011;3302;52.508;13.454;2024-01-30T04:50:01;9.10;;;6.23;;
6537;SDS011;3302;52.508;13.454;2024-01-30T04:52:28;8.57;;;5.60;;
6537;SDS011;3302;52.508;13.454;2024-01-30T04:54:53;12.10;;;6.20;;
6537;SDS011;3302;52.508;13.454;2024-01-30T04:57:19;10.63;;;5.90;;
6537;SDS011;3302;52.508;13.454;2024-01-30T04:59:45;9.57;;;6.10;;
6537;SDS011;3302;52.508;13.454;2024-01-30T05:02:11;9.37;;;5.90;;
6537;SDS011;3302;52.508;13.454;2024-01-30T05:04:37;8.93;;;5.60;;
6537;SDS011;3302;52.508;13.454;2024-01-30T05:07:03;12.40;;;5.57;;
6537;SDS011;3302;52.508;13.454;2024-01-30T05:09:29;11.03;;;6.53;;
6537;SDS011;3302;52.508;13.454;2024-01-30T05:11:55;9.73;;;6.20;;
6537;SDS011;3302;52.508;13.454;2024-01-30T05:14:21;11.80;;;6.20;;
6537;SDS011;3302;52.508;13.454;2024-01-30T05:16:46;11.33;;;6.67;;
6537;SDS011;3302;52.508;13.454;2024-01-30T05:19:13;12.17;;;6.17;;
6537;SDS011;3302;52.508;13.454;2024-01-30T05:21:39;9.00;;;5.80;;
6537;SDS011;3302;52.508;13.454;2024-01-30T05:24:06;11.50;;;6.70;;
6537;SDS011;3302;52.508;13.454;2024-01-30T05:26:32;7.47;;;5.17;;
6537;SDS011;3302;52.508;13.454;2024-01-30T05:28:58;12.87;;;6.87;;
6537;SDS011;3302;52.508;13.454;2024-01-30T05:31:24;10.23;;;5.73;;
6537;SDS011;3302;52.508;13.454;2024-01-30T05:33:52;9.00;;;5.90;;
6537;SDS011;3302;52.508;13.454;2024-01-30T05:36:19;10.97;;;6.23;;
6537;SDS011;3302;52.508;13.454;2024-01-30T05:38:46;8.97;;;5.43;;
6537;SDS011;3302;52.508;13.454;2024-01-30T05:41:11;10.60;;;6.17;;
6537;SDS011;3302;52.508;13.454;2024-01-30T05:43:37;10.23;;;6.47;;
6537;SDS011;3302;52.508;13.454;2024-01-30T05:46:03;8.80;;;5.90;;
6537;SDS011;3302;52.508;13.454;2024-01-30T05:48:29;10.87;;;6.17;;
6537;SDS011;3302;52.508;13.454;2024-01-30T05:50:54;10.10;;;6.13;;
6537;SDS011;3302;52.508;13.454;2024-01-30T05:53:21;9.93;;;6.63;;
6537;SDS011;3302;52.508;13.454;2024-01-30T05:55:47;9.47;;;6.33;;
6537;SDS011;3302;52.508;13.454;2024-01-30T05:58:13;10.23;;;5.93;;
6537;SDS011;3302;52.508;13.454;2024-01-30T06:00:39;11.40;;;6.37;;
6537;SDS011;3302;52.508;13.454;2024-01-30T06:03:05;12.73;;;7.03;;
6537;SDS011;3302;52.508;13.454;2024-01-30T06:05:30;12.93;;;7.57;;
6537;SDS011;3302;52.508;13.454;2024-01-30T06:07:56;10.70;;;6.60;;
6537;SDS011;3302;52.508;13.454;2024-01-30T06:10:22;12.30;;;6.70;;
6537;SDS011;3302;52.508;13.454;2024-01-30T06:12:49;9.83;;;6.33;;
6537;SDS011;3302;52.508;13.454;2024-01-30T06:15:15;8.90;;;6.47;;
6537;SDS011;3302;52.508;13.454;2024-01-30T06:17:41;9.37;;;6.37;;
6537;SDS011;3302;52.508;13.454;2024-01-30T06:20:06;10.40;;;6.70;;
6537;SDS011;3302;52.508;13.454;2024-01-30T06:22:32;9.83;;;6.30;;
6537;SDS011;3302;52.508;13.454;2024-01-30T06:24:58;12.23;;;6.50;;
6537;SDS011;3302;52.508;13.454;2024-01-30T06:27:24;12.53;;;6.73;;
6537;SDS011;3302;52.508;13.454;2024-01-30T06:29:50;13.47;;;6.33;;
6537;SDS011;3302;52.508;13.454;2024-01-30T06:32:15;12.17;;;6.53;;
6537;SDS011;3302;52.508;13.454;2024-01-30T06:34:41;10.03;;;6.00;;
6537;SDS011;3302;52.508;13.454;2024-01-30T06:37:09;12.43;;;6.47;;
6537;SDS011;3302;52.508;13.454;2024-01-30T06:39:35;9.97;;;6.27;;
6537;SDS011;3302;52.508;13.454;2024-01-30T06:42:01;11.73;;;6.07;;
6537;SDS011;3302;52.508;13.454;2024-01-30T06:44:27;10.70;;;6.57;;
6537;SDS011;3302;52.508;13.454;2024-01-30T06:46:54;12.17;;;6.30;;
6537;SDS011;3302;52.508;13.454;2024-01-30T06:49:20;11.17;;;6.37;;
6537;SDS011;3302;52.508;13.454;2024-01-30T06:51:47;8.83;;;6.10;;
6537;SDS011;3302;52.508;13.454;2024-01-30T06:54:13;12.53;;;6.80;;
6537;SDS011;3302;52.508;13.454;2024-01-30T06:56:39;11.83;;;6.60;;
6537;SDS011;3302;52.508;13.454;2024-01-30T06:59:05;15.40;;;7.83;;
6537;SDS011;3302;52.508;13.454;2024-01-30T07:01:30;15.57;;;7.83;;
6537;SDS011;3302;52.508;13.454;2024-01-30T07:03:57;13.80;;;8.40;;
6537;SDS011;3302;52.508;13.454;2024-01-30T07:06:23;12.47;;;7.47;;
6537;SDS011;3302;52.508;13.454;2024-01-30T07:08:49;12.10;;;7.13;;
6537;SDS011;3302;52.508;13.454;2024-01-30T07:11:22;13.40;;;7.40;;
6537;SDS011;3302;52.508;13.454;2024-01-30T07:13:50;12.37;;;6.70;;
6537;SDS011;3302;52.508;13.454;2024-01-30T07:16:16;11.03;;;6.93;;
6537;SDS011;3302;52.508;13.454;2024-01-30T07:18:43;10.27;;;7.03;;
6537;SDS011;3302;52.508;13.454;2024-01-30T07:21:09;12.80;;;7.27;;
6537;SDS011;3302;52.508;13.454;2024-01-30T07:23:35;11.57;;;7.33;;
6537;SDS011;3302;52.508;13.454;2024-01-30T07:26:07;10.17;;;6.00;;
6537;SDS011;3302;52.508;13.454;2024-01-30T07:28:33;11.80;;;6.67;;
6537;SDS011;3302;52.508;13.454;2024-01-30T07:31:00;14.80;;;7.40;;
6537;SDS011;3302;52.508;13.454;2024-01-30T07:33:26;12.10;;;7.43;;
6537;SDS011;3302;52.508;13.454;2024-01-30T07:35:52;13.63;;;7.43;;
6537;SDS011;3302;52.508;13.454;2024-01-30T07:38:19;12.57;;;7.17;;
6537;SDS011;3302;52.508;13.454;2024-01-30T07:40:45;16.73;;;9.37;;
6537;SDS011;3302;52.508;13.454;2024-01-30T07:43:11;13.03;;;7.20;;
6537;SDS011;3302;52.508;13.454;2024-01-30T07:45:37;14.30;;;7.30;;
6537;SDS011;3302;52.508;13.454;2024-01-30T07:48:04;13.93;;;7.23;;
6537;SDS011;3302;52.508;13.454;2024-01-30T07:50:33;14.93;;;7.30;;
6537;SDS011;3302;52.508;13.454;2024-01-30T07:52:59;12.40;;;6.80;;
6537;SDS011;3302;52.508;13.454;2024-01-30T07:55:25;11.03;;;7.13;;
6537;SDS011;3302;52.508;13.454;2024-01-30T08:01:28;15.40;;;8.47;;
6537;SDS011;3302;52.508;13.454;2024-01-30T08:03:54;14.30;;;7.73;;
6537;SDS011;3302;52.508;13.454;2024-01-30T08:06:19;17.40;;;7.70;;
6537;SDS011;3302;52.508;13.454;2024-01-30T08:08:45;13.20;;;7.77;;
6537;SDS011;3302;52.508;13.454;2024-01-30T08:11:11;15.50;;;7.20;;
6537;SDS011;3302;52.508;13.454;2024-01-30T08:13:37;14.70;;;7.43;;
6537;SDS011;3302;52.508;13.454;2024-01-30T08:16:03;15.90;;;7.30;;
6537;SDS011;3302;52.508;13.454;2024-01-30T08:18:29;15.67;;;7.37;;
6537;SDS011;3302;52.508;13.454;2024-01-30T08:20:55;12.57;;;6.93;;
6537;SDS011;3302;52.508;13.454;2024-01-30T08:23:21;17.40;;;7.90;;
6537;SDS011;3302;52.508;13.454;2024-01-30T08:25:47;12.10;;;7.50;;
6537;SDS011;3302;52.508;13.454;2024-01-30T08:28:12;16.07;;;7.23;;
6537;SDS011;3302;52.508;13.454;2024-01-30T08:30:38;10.97;;;7.23;;
6537;SDS011;3302;52.508;13.454;2024-01-30T08:33:05;11.97;;;6.90;;
6537;SDS011;3302;52.508;13.454;2024-01-30T08:35:30;12.30;;;6.80;;
6537;SDS011;3302;52.508;13.454;2024-01-30T08:37:58;11.83;;;6.90;;
6537;SDS011;3302;52.508;13.454;2024-01-30T08:40:24;14.83;;;7.10;;
6537;SDS011;3302;52.508;13.454;2024-01-30T08:42:50;12.87;;;7.20;;
6537;SDS011;3302;52.508;13.454;2024-01-30T08:45:16;11.73;;;7.40;;
6537;SDS011;3302;52.508;13.454;2024-01-30T08:47:42;14.10;;;7.77;;
6537;SDS011;3302;52.508;13.454;2024-01-30T08:50:08;17.43;;;7.90;;
6537;SDS011;3302;52.508;13.454;2024-01-30T08:52:34;11.93;;;6.73;;
6537;SDS011;3302;52.508;13.454;2024-01-30T08:55:00;13.23;;;6.93;;
6537;SDS011;3302;52.508;13.454;2024-01-30T08:57:25;12.27;;;6.80;;
6537;SDS011;3302;52.508;13.454;2024-01-30T08:59:54;10.63;;;6.53;;
6537;SDS011;3302;52.508;13.454;2024-01-30T09:02:20;11.23;;;6.70;;
6537;SDS011;3302;52.508;13.454;2024-01-30T09:04:46;10.53;;;6.73;;
6537;SDS011;3302;52.508;13.454;2024-01-30T09:07:12;12.53;;;7.00;;
6537;SDS011;3302;52.508;13.454;2024-01-30T09:09:39;11.00;;;6.23;;
6537;SDS011;3302;52.508;13.454;2024-01-30T09:12:08;10.97;;;6.07;;
6537;SDS011;3302;52.508;13.454;2024-01-30T09:14:37;13.50;;;6.17;;
6537;SDS011;3302;52.508;13.454;2024-01-30T09:17:03;10.57;;;6.50;;
6537;SDS011;3302;52.508;13.454;2024-01-30T09:19:29;12.60;;;6.90;;
6537;SDS011;3302;52.508;13.454;2024-01-30T09:21:55;11.23;;;6.80;;
6537;SDS011;3302;52.508;13.454;2024-01-30T09:24:21;10.60;;;6.60;;
6537;SDS011;3302;52.508;13.454;2024-01-30T09:26:47;11.10;;;6.23;;
6537;SDS011;3302;52.508;13.454;2024-01-30T09:29:16;11.47;;;6.50;;
6537;SDS011;3302;52.508;13.454;2024-01-30T09:31:45;11.93;;;6.37;;
6537;SDS011;3302;52.508;13.454;2024-01-30T09:34:11;11.67;;;6.33;;
6537;SDS011;3302;52.508;13.454;2024-01-30T09:36:37;10.27;;;6.17;;
6537;SDS011;3302;52.508;13.454;2024-01-30T09:39:03;8.37;;;5.90;;
6537;SDS011;3302;52.508;13.454;2024-01-30T09:41:29;11.40;;;6.33;;
6537;SDS011;3302;52.508;13.454;2024-01-30T09:43:58;9.50;;;5.93;;
6537;SDS011;3302;52.508;13.454;2024-01-30T09:46:26;10.43;;;5.73;;
6537;SDS011;3302;52.508;13.454;2024-01-30T09:48:53;8.70;;;5.90;;
6537;SDS011;3302;52.508;13.454;2024-01-30T09:51:21;7.80;;;5.37;;
6537;SDS011;3302;52.508;13.454;2024-01-30T09:53:47;9.20;;;5.30;;
6537;SDS011;3302;52.508;13.454;2024-01-30T09:56:14;8.87;;;6.10;;
6537;SDS011;3302;52.508;13.454;2024-01-30T09:58:40;9.70;;;6.13;;
6537;SDS011;3302;52.508;13.454;2024-01-30T10:01:07;8.40;;;5.90;;
6537;SDS011;3302;52.508;13.454;2024-01-30T10:03:32;8.77;;;6.13;;
6537;SDS011;3302;52.508;13.454;2024-01-30T10:05:59;10.10;;;5.87;;
6537;SDS011;3302;52.508;13.454;2024-01-30T10:08:26;11.30;;;6.33;;
6537;SDS011;3302;52.508;13.454;2024-01-30T10:10:52;9.97;;;5.40;;
6537;SDS011;3302;52.508;13.454;2024-01-30T10:13:18;8.53;;;5.23;;
6537;SDS011;3302;52.508;13.454;2024-01-30T10:15:44;8.93;;;5.47;;
6537;SDS011;3302;52.508;13.454;2024-01-30T10:18:10;9.53;;;5.47;;
6537;SDS011;3302;52.508;13.454;2024-01-30T10:20:36;9.07;;;5.60;;
6537;SDS011;3302;52.508;13.454;2024-01-30T10:23:02;10.10;;;5.43;;
6537;SDS011;3302;52.508;13.454;2024-01-30T10:25:31;8.23;;;5.57;;
6537;SDS011;3302;52.508;13.454;2024-01-30T10:27:58;8.87;;;5.27;;
6537;SDS011;3302;52.508;13.454;2024-01-30T10:30:25;11.53;;;5.53;;
6537;SDS011;3302;52.508;13.454;2024-01-30T10:32:52;8.93;;;5.30;;
6537;SDS011;3302;52.508;13.454;2024-01-30T10:35:18;8.57;;;4.80;;
6537;SDS011;3302;52.508;13.454;2024-01-30T10:37:44;10.07;;;5.83;;
6537;SDS011;3302;52.508;13.454;2024-01-30T10:40:13;6.60;;;4.70;;
6537;SDS011;3302;52.508;13.454;2024-01-30T10:42:43;9.57;;;5.03;;
6537;SDS011;3302;52.508;13.454;2024-01-30T10:45:13;8.40;;;4.70;;
6537;SDS011;3302;52.508;13.454;2024-01-30T10:47:42;7.30;;;4.90;;
6537;SDS011;3302;52.508;13.454;2024-01-30T10:50:14;11.03;;;5.70;;
6537;SDS011;3302;52.508;13.454;2024-01-30T10:52:41;6.33;;;4.43;;
6537;SDS011;3302;52.508;13.454;2024-01-30T10:55:10;7.17;;;5.40;;
6537;SDS011;3302;52.508;13.454;2024-01-30T10:57:36;9.10;;;5.50;;
6537;SDS011;3302;52.508;13.454;2024-01-30T11:00:09;7.20;;;4.90;;
6537;SDS011;3302;52.508;13.454;2024-01-30T11:02:37;8.00;;;4.57;;
6537;SDS011;3302;52.508;13.454;2024-01-30T11:05:05;9.07;;;4.50;;
6537;SDS011;3302;52.508;13.454;2024-01-30T11:07:31;7.90;;;4.80;;
6537;SDS011;3302;52.508;13.454;2024-01-30T11:10:04;9.43;;;5.80;;
6537;SDS011;3302;52.508;13.454;2024-01-30T11:12:32;11.80;;;6.73;;
6537;SDS011;3302;52.508;13.454;2024-01-30T11:15:09;13.47;;;5.97;;
6537;SDS011;3302;52.508;13.454;2024-01-30T11:20:16;10.40;;;5.00;;
6537;SDS011;3302;52.508;13.454;2024-01-30T11:22:56;9.20;;;4.70;;
6537;SDS011;3302;52.508;13.454;2024-01-30T11:25:23;8.00;;;5.03;;
6537;SDS011;3302;52.508;13.454;2024-01-30T11:27:54;8.03;;;5.03;;
6537;SDS011;3302;52.508;13.454;2024-01-30T11:30:27;7.00;;;4.63;;
6537;SDS011;3302;52.508;13.454;2024-01-30T11:35:31;8.00;;;5.03;;
6537;SDS011;3302;52.508;13.454;2024-01-30T11:37:59;10.67;;;4.93;;
6537;SDS011;3302;52.508;13.454;2024-01-30T11:40:29;7.60;;;5.17;;
6537;SDS011;3302;52.508;13.454;2024-01-30T11:42:56;10.43;;;4.70;;
6537;SDS011;3302;52.508;13.454;2024-01-30T11:45:24;7.83;;;5.27;;
6537;SDS011;3302;52.508;13.454;2024-01-30T11:47:51;9.47;;;5.80;;
6537;SDS011;3302;52.508;13.454;2024-01-30T11:50:17;8.57;;;5.40;;
6537;SDS011;3302;52.508;13.454;2024-01-30T11:52:43;9.50;;;5.53;;
6537;SDS011;3302;52.508;13.454;2024-01-30T11:55:09;8.00;;;5.27;;
6537;SDS011;3302;52.508;13.454;2024-01-30T11:57:36;10.33;;;4.90;;
6537;SDS011;3302;52.508;13.454;2024-01-30T12:00:05;7.77;;;4.90;;
6537;SDS011;3302;52.508;13.454;2024-01-30T12:02:36;8.27;;;5.00;;
6537;SDS011;3302;52.508;13.454;2024-01-30T12:05:05;9.83;;;5.67;;
6537;SDS011;3302;52.508;13.454;2024-01-30T12:07:32;8.87;;;5.10;;
6537;SDS011;3302;52.508;13.454;2024-01-30T12:09:58;7.90;;;4.87;;
6537;SDS011;3302;52.508;13.454;2024-01-30T12:12:25;10.03;;;5.50;;
6537;SDS011;3302;52.508;13.454;2024-01-30T12:14:52;7.47;;;5.13;;
6537;SDS011;3302;52.508;13.454;2024-01-30T12:17:28;10.00;;;4.77;;
6537;SDS011;3302;52.508;13.454;2024-01-30T12:20:08;9.07;;;5.30;;
6537;SDS011;3302;52.508;13.454;2024-01-30T12:22:39;8.37;;;5.20;;
6537;SDS011;3302;52.508;13.454;2024-01-30T12:25:07;9.07;;;5.80;;
6537;SDS011;3302;52.508;13.454;2024-01-30T12:27:34;8.67;;;4.87;;
6537;SDS011;3302;52.508;13.454;2024-01-30T12:30:07;7.07;;;5.10;;
6537;SDS011;3302;52.508;13.454;2024-01-30T12:32:38;10.43;;;6.27;;
6537;SDS011;3302;52.508;13.454;2024-01-30T12:35:09;6.97;;;4.70;;
6537;SDS011;3302;52.508;13.454;2024-01-30T12:37:36;7.57;;;5.10;;
6537;SDS011;3302;52.508;13.454;2024-01-30T12:40:02;8.03;;;5.13;;
6537;SDS011;3302;52.508;13.454;2024-01-30T12:42:29;7.97;;;5.33;;
6537;SDS011;3302;52.508;13.454;2024-01-30T12:44:56;6.60;;;4.97;;
6537;SDS011;3302;52.508;13.454;2024-01-30T12:47:27;8.47;;;5.03;;
6537;SDS011;3302;52.508;13.454;2024-01-30T12:49:53;8.20;;;5.33;;
6537;SDS011;3302;52.508;13.454;2024-01-30T12:52:19;7.60;;;5.10;;
6537;SDS011;3302;52.508;13.454;2024-01-30T12:54:46;7.30;;;4.37;;
6537;SDS011;3302;52.508;13.454;2024-01-30T12:57:12;10.07;;;5.10;;
6537;SDS011;3302;52.508;13.454;2024-01-30T12:59:38;7.03;;;4.60;;
6537;SDS011;3302;52.508;13.454;2024-01-30T13:02:04;7.73;;;4.63;;
6537;SDS011;3302;52.508;13.454;2024-01-30T13:04:31;8.03;;;4.67;;
6537;SDS011;3302;52.508;13.454;2024-01-30T13:06:56;8.10;;;5.10;;
6537;SDS011;3302;52.508;13.454;2024-01-30T13:09:23;8.13;;;5.03;;
6537;SDS011;3302;52.508;13.454;2024-01-30T13:11:49;7.63;;;5.13;;
6537;SDS011;3302;52.508;13.454;2024-01-30T13:14:16;8.23;;;5.50;;
6537;SDS011;3302;52.508;13.454;2024-01-30T13:16:43;16.63;;;5.07;;
6537;SDS011;3302;52.508;13.454;2024-01-30T13:19:09;10.23;;;5.07;;
6537;SDS011;3302;52.508;13.454;2024-01-30T13:21:34;8.33;;;5.20;;
6537;SDS011;3302;52.508;13.454;2024-01-30T13:24:00;9.23;;;5.20;;
6537;SDS011;3302;52.508;13.454;2024-01-30T13:26:26;10.13;;;5.20;;
6537;SDS011;3302;52.508;13.454;2024-01-30T13:28:52;8.90;;;5.00;;
6537;SDS011;3302;52.508;13.454;2024-01-30T13:31:17;11.03;;;5.40;;
6537;SDS011;3302;52.508;13.454;2024-01-30T13:33:44;14.67;;;5.47;;
6537;SDS011;3302;52.508;13.454;2024-01-30T13:36:10;8.80;;;5.10;;
6537;SDS011;3302;52.508;13.454;2024-01-30T13:38:37;7.40;;;5.17;;
6537;SDS011;3302;52.508;13.454;2024-01-30T13:41:04;9.33;;;4.83;;
6537;SDS011;3302;52.508;13.454;2024-01-30T13:43:30;6.50;;;4.80;;
6537;SDS011;3302;52.508;13.454;2024-01-30T13:45:56;7.97;;;4.80;;
6537;SDS011;3302;52.508;13.454;2024-01-30T13:48:22;7.33;;;4.87;;
6537;SDS011;3302;52.508;13.454;2024-01-30T13:50:48;7.93;;;4.80;;
6537;SDS011;3302;52.508;13.454;2024-01-30T13:53:13;9.27;;;5.10;;
6537;SDS011;3302;52.508;13.454;2024-01-30T13:55:39;7.07;;;5.00;;
6537;SDS011;3302;52.508;13.454;2024-01-30T13:58:05;7.07;;;5.00;;
6537;SDS011;3302;52.508;13.454;2024-01-30T14:00:33;8.47;;;4.90;;
6537;SDS011;3302;52.508;13.454;2024-01-30T14:02:59;6.97;;;5.27;;
6537;SDS011;3302;52.508;13.454;2024-01-30T14:05:25;9.17;;;5.67;;
6537;SDS011;3302;52.508;13.454;2024-01-30T14:07:55;8.10;;;5.40;;
6537;SDS011;3302;52.508;13.454;2024-01-30T14:10:22;9.03;;;5.30;;
6537;SDS011;3302;52.508;13.454;2024-01-30T14:12:48;7.23;;;4.93;;
6537;SDS011;3302;52.508;13.454;2024-01-30T14:15:14;7.13;;;5.10;;
6537;SDS011;3302;52.508;13.454;2024-01-30T14:17:42;8.13;;;5.10;;
6537;SDS011;3302;52.508;13.454;2024-01-30T14:20:09;10.23;;;6.67;;
6537;SDS011;3302;52.508;13.454;2024-01-30T14:22:35;7.63;;;5.20;;
6537;SDS011;3302;52.508;13.454;2024-01-30T14:25:02;9.90;;;5.00;;
6537;SDS011;3302;52.508;13.454;2024-01-30T14:27:31;8.47;;;5.50;;
6537;SDS011;3302;52.508;13.454;2024-01-30T14:29:57;9.43;;;5.10;;
6537;SDS011;3302;52.508;13.454;2024-01-30T14:32:23;7.87;;;5.37;;
6537;SDS011;3302;52.508;13.454;2024-01-30T14:34:50;7.73;;;4.93;;
6537;SDS011;3302;52.508;13.454;2024-01-30T14:37:17;7.80;;;5.20;;
6537;SDS011;3302;52.508;13.454;2024-01-30T14:39:44;7.27;;;5.10;;
6537;SDS011;3302;52.508;13.454;2024-01-30T14:42:09;8.80;;;5.43;;
6537;SDS011;3302;52.508;13.454;2024-01-30T14:44:35;9.00;;;5.43;;
6537;SDS011;3302;52.508;13.454;2024-01-30T14:47:01;9.40;;;5.30;;
6537;SDS011;3302;52.508;13.454;2024-01-30T14:49:27;9.33;;;5.50;;
6537;SDS011;3302;52.508;13.454;2024-01-30T14:51:53;9.17;;;5.30;;
6537;SDS011;3302;52.508;13.454;2024-01-30T14:54:20;9.47;;;5.20;;
6537;SDS011;3302;52.508;13.454;2024-01-30T14:56:46;7.27;;;5.00;;
6537;SDS011;3302;52.508;13.454;2024-01-30T14:59:12;8.10;;;5.37;;
6537;SDS011;3302;52.508;13.454;2024-01-30T15:01:37;9.90;;;5.07;;